ICAO code: LHPR | IATA code: QGY | AFTN: LHPRZPZX | english | deutsch
Időjárás: 2018-07-23 09:20 (UTC) | Hőmérséklet: 20.2 °C | QNH: 1011.6 hPa | Szél: 5.1 m/s | Részletek
Live ATC LHPR
Webkameránk élőképe

Győr-Pér Repülőtér időjárás adatok

Metar:
METAR LHPR 230915Z 29009KT 9999 FEW046 BKN083 20/18 Q1011 RMK BL


Taf:
TAF LHPR 222000Z NIL


Jelenidő:
Nem volt érdemleges időjárási jelenség az elmúlt órában
Időbélyeg: 2018-07-23 09:20:00 UTC
Hőmérséklet:
20.2 °C
 
Harmatpont:
18.5 °C
 
Rel. páratartalom:
90%
 
QNH:
1011.6 hPa
 
Szélsebesség:
5.1 m/s
Max:
5.9 m/s
Szélirány:
290°
 
Csapadék (1 óra):
0.0 mm
 
Látótávolság:
13518 m
 
RVR:
>1500 m RWY30
 
1. felhőréteg mennyisége:
1 octa
 
1. felhőréteg alapja:
1640 m


Az adatokat szolgáltatja
az Országos Meteorológiai Szolgálat
Győr-Pér Repülőtér | H 9099 Pér, Repülőtér | Tel: +36/96/559-200 | Fax: +36/96/559-202

ICAO code: LHPR | IATA code: QGY | AFTN: LHPRZPZX


weboldal tervezés: IRQ